Terminal Island, California
Current Conditions -  °F | °C
As of 6:55 PM on Sunday 23 Nov 2014 (Local Time) from KTOA Reporting Station
Broken Clouds Broken Clouds  
Wind Chill: 66°   Ceiling: 20000
Heat Index: 66°   Visibility: 20mi
Dew Point: 19°   Wind: 8mph
Humidity: 17%   Direction: 220°SW
Pressure: 30.11"   Gusts: NA
Location:  33.7377°N, 118.291°W
Report Text: KTOA 240255Z 22007KT 20SM BKN200 19/M07 A3011
Loading
Personal Weather Stations






























Interactive Weather Map New forecast layout! Learn more

10-Day Weather Forecast

Advertisements
Track Severe Weather on mobile